Lake Tahoe Airport
KTVL : now visible

Airfield :











YOU CAN JOIN US ON...

 
LOGIN :

Register | Disclaimer

   EN    FR    IT 

 









Legend :    VFR   Marginal VFR   IFR   Intensive IFR   Very Intensive IFR
Visi :
Ceiling :
>= 8 km
>= 3000ft
5 to 8 km
1000 to 3000 ft
1500m to 5 km
500 to 1000 ft
800 to 1500m
200 to 500 ft
< 800m
< 200 ft
Symbols :   Thunderstorms  Fog  Heavy snow  Heavy precipitations  Wind > 20 kt






- Airport Elevation : 6264 ft
- IATA code : TVL


KTVL - Lake Tahoe

CURRENT METAR :
  • 150753Z AUTO 00000KT 1/4SM +SN FZFG BKN005 OVC011 M03/M04 A2983 RMK AO2 SLP098 P0007 T10281039 400331028

EXPIRED METARs :
  • 150734Z AUTO 00000KT 1 1/2SM -SN BR SCT010 BKN022 OVC027 M02/M04 A2983 RMK AO2 P0001 T10221044
  • 150712Z AUTO 04004KT 3SM -SN BR BKN026 OVC037 M02/M04 A2983 RMK AO2 P0001 T10221044
  • 150704Z AUTO 00000KT 2SM -SN OVC022 M02/M05 A2983 RMK AO2 P0000 T10221050
  • 150646Z AUTO 00000KT 1SM -SN BR VV011 M02/M04 A2983 RMK AO2 SNB00 P0004 T10221044
  • 150622Z AUTO VRB04KT 1/2SM SN FZFG BKN009 OVC025 M03/M04 A2983 RMK AO2 SNB00 P0002 T10281044
  • 150612Z AUTO 00000KT 3/4SM -SN BR BKN020 OVC025 M02/M04 A2983 RMK AO2 SNB00 P0000 T10221044
  • 150606Z AUTO 20006KT 2 1/2SM -SN FEW025 OVC030 M02/M05 A2983 RMK AO2 SNB00 P0000 T10221050
  • 150542Z AUTO 19008G15KT 5SM -SN FEW019 SCT023 OVC032 M02/M05 A2981 RMK AO2 P0003 T10171050
  • 150536Z AUTO VRB06KT 2 1/2SM -SN BKN023 OVC030 M02/M04 A2982 RMK AO2 P0003 T10171044
  • 150517Z AUTO 19005KT 3SM -SN BR FEW009 BKN015 OVC022 M02/M04 A2982 RMK AO2 P0002 T10221039

TAF KTVL
Valid from the 15 at 06:00 until the 16 at 06:00 UTC


150540Z 1506/1606 18008KT 1SM -SN BR BKN008 OVC014
FM151100 14005KT 5SM BR SCT015 BKN020
FM151500 03005KT P6SM SCT035
FM160100 VRB02KT P6SM SKC



MET'MAP, your aeronautical weather chart ! - Copyright ORBIFLY December 2007 - Disclaimer

ORBIFLY MET'MAP TEAM :

Programming & Development : Alexandra Zaïnal
Concept & original design : Baudouin d'Aumeries
Assistance for programming : Marc-Olivier Méhu
Technical & hardware support : Manuel Goepfert

Contact : metmap@orbifly.com




SOURCES & CREDITS :

   NOAA       Earth
Advisory